Terminal Aerodrome Forecast
Issued by NWS Buffalo, NY

Home | Current Version | Previous Version | Text Only | Print | Product List | Glossary On
Versions: 1 2 3 4 5 6 7 8 9 10 11 12 13 14 15 16 17 18 19 20 21 22 23
000
FTUS41 KBUF 112337
TAFROC
TAF
KROC 112337Z 1200/1224 11007KT 5SM -SHSN BKN035
     FM120300 13007KT 1SM -SN OVC020
     FM121300 04007KT 1SM -SN OVC007
     FM121500 29009KT 3/4SM -SN OVC003
     FM122300 27015G21KT 2SM -SN OVC015=

USA.gov is the U.S. government's official web portal to all federal, state and local government web resources and services.